sensor_id;sensor_type;location;lat;lon;timestamp;temperature;humidity
35970;DHT22;22448;51.298;6.430;2023-09-19T00:00:43;15.00;99.90
35970;DHT22;22448;51.298;6.430;2023-09-19T00:03:11;15.00;99.90
35970;DHT22;22448;51.298;6.430;2023-09-19T00:05:39;15.00;99.90
35970;DHT22;22448;51.298;6.430;2023-09-19T00:08:06;15.00;99.90
35970;DHT22;22448;51.298;6.430;2023-09-19T00:10:34;15.00;99.90
35970;DHT22;22448;51.298;6.430;2023-09-19T00:13:04;14.90;99.90
35970;DHT22;22448;51.298;6.430;2023-09-19T00:15:40;14.90;99.90
35970;DHT22;22448;51.298;6.430;2023-09-19T00:18:08;14.90;99.90
35970;DHT22;22448;51.298;6.430;2023-09-19T00:20:37;14.90;99.90
35970;DHT22;22448;51.298;6.430;2023-09-19T00:23:05;14.80;99.90
35970;DHT22;22448;51.298;6.430;2023-09-19T00:25:36;14.80;99.90
35970;DHT22;22448;51.298;6.430;2023-09-19T00:28:05;14.80;99.90
35970;DHT22;22448;51.298;6.430;2023-09-19T00:30:34;14.80;99.90
35970;DHT22;22448;51.298;6.430;2023-09-19T00:33:02;14.70;99.90
35970;DHT22;22448;51.298;6.430;2023-09-19T00:35:33;14.70;99.90
35970;DHT22;22448;51.298;6.430;2023-09-19T00:38:00;14.70;99.90
35970;DHT22;22448;51.298;6.430;2023-09-19T00:40:27;14.70;99.90
35970;DHT22;22448;51.298;6.430;2023-09-19T00:42:57;14.70;99.90
35970;DHT22;22448;51.298;6.430;2023-09-19T00:45:28;14.70;99.90
35970;DHT22;22448;51.298;6.430;2023-09-19T00:48:01;14.70;99.90
35970;DHT22;22448;51.298;6.430;2023-09-19T00:50:30;14.70;99.90
35970;DHT22;22448;51.298;6.430;2023-09-19T00:52:59;14.60;99.90
35970;DHT22;22448;51.298;6.430;2023-09-19T00:55:29;14.70;99.90
35970;DHT22;22448;51.298;6.430;2023-09-19T00:57:57;14.70;99.90
35970;DHT22;22448;51.298;6.430;2023-09-19T01:00:24;14.60;99.90
35970;DHT22;22448;51.298;6.430;2023-09-19T01:02:51;14.60;99.90
35970;DHT22;22448;51.298;6.430;2023-09-19T01:05:19;14.60;99.90
35970;DHT22;22448;51.298;6.430;2023-09-19T01:07:46;14.60;99.90
35970;DHT22;22448;51.298;6.430;2023-09-19T01:10:17;14.50;99.90
35970;DHT22;22448;51.298;6.430;2023-09-19T01:15:57;14.50;99.90
35970;DHT22;22448;51.298;6.430;2023-09-19T01:18:40;14.50;99.90
35970;DHT22;22448;51.298;6.430;2023-09-19T01:21:21;14.40;99.90
35970;DHT22;22448;51.298;6.430;2023-09-19T01:27:43;14.40;99.90
35970;DHT22;22448;51.298;6.430;2023-09-19T01:30:21;14.40;99.90
35970;DHT22;22448;51.298;6.430;2023-09-19T01:32:50;14.40;99.90
35970;DHT22;22448;51.298;6.430;2023-09-19T01:35:19;14.40;99.90
35970;DHT22;22448;51.298;6.430;2023-09-19T01:37:46;14.30;99.90
35970;DHT22;22448;51.298;6.430;2023-09-19T01:40:15;14.30;99.90
35970;DHT22;22448;51.298;6.430;2023-09-19T01:48:43;14.30;99.90
35970;DHT22;22448;51.298;6.430;2023-09-19T01:51:22;14.20;99.90
35970;DHT22;22448;51.298;6.430;2023-09-19T01:54:02;14.20;99.90
35970;DHT22;22448;51.298;6.430;2023-09-19T01:56:45;14.20;99.90
35970;DHT22;22448;51.298;6.430;2023-09-19T01:59:16;14.20;99.90
35970;DHT22;22448;51.298;6.430;2023-09-19T02:01:45;14.10;99.90
35970;DHT22;22448;51.298;6.430;2023-09-19T02:04:13;14.10;99.90
35970;DHT22;22448;51.298;6.430;2023-09-19T02:06:41;14.10;99.90
35970;DHT22;22448;51.298;6.430;2023-09-19T02:09:09;14.10;99.90
35970;DHT22;22448;51.298;6.430;2023-09-19T02:11:36;14.10;99.90
35970;DHT22;22448;51.298;6.430;2023-09-19T02:14:04;14.10;99.90
35970;DHT22;22448;51.298;6.430;2023-09-19T02:16:35;14.10;99.90
35970;DHT22;22448;51.298;6.430;2023-09-19T02:19:03;14.10;99.90
35970;DHT22;22448;51.298;6.430;2023-09-19T02:21:34;14.20;99.90
35970;DHT22;22448;51.298;6.430;2023-09-19T02:24:01;14.10;99.90
35970;DHT22;22448;51.298;6.430;2023-09-19T02:26:28;14.10;99.90
35970;DHT22;22448;51.298;6.430;2023-09-19T02:28:55;14.10;99.90
35970;DHT22;22448;51.298;6.430;2023-09-19T02:31:22;14.10;99.90
35970;DHT22;22448;51.298;6.430;2023-09-19T02:33:49;14.10;99.90
35970;DHT22;22448;51.298;6.430;2023-09-19T02:36:16;14.10;99.90
35970;DHT22;22448;51.298;6.430;2023-09-19T02:38:44;14.10;99.90
35970;DHT22;22448;51.298;6.430;2023-09-19T02:41:11;14.10;99.90
35970;DHT22;22448;51.298;6.430;2023-09-19T02:43:38;14.00;99.90
35970;DHT22;22448;51.298;6.430;2023-09-19T02:46:06;14.00;99.90
35970;DHT22;22448;51.298;6.430;2023-09-19T02:48:33;14.00;99.90
35970;DHT22;22448;51.298;6.430;2023-09-19T02:51:02;13.90;99.90
35970;DHT22;22448;51.298;6.430;2023-09-19T02:53:32;13.90;99.90
35970;DHT22;22448;51.298;6.430;2023-09-19T02:55:59;13.90;99.90
35970;DHT22;22448;51.298;6.430;2023-09-19T02:58:26;13.90;99.90
35970;DHT22;22448;51.298;6.430;2023-09-19T03:00:55;13.90;99.90
35970;DHT22;22448;51.298;6.430;2023-09-19T03:03:23;13.90;99.90
35970;DHT22;22448;51.298;6.430;2023-09-19T03:05:50;13.90;99.90
35970;DHT22;22448;51.298;6.430;2023-09-19T03:08:21;13.90;99.90
35970;DHT22;22448;51.298;6.430;2023-09-19T03:10:48;13.90;99.90
35970;DHT22;22448;51.298;6.430;2023-09-19T03:13:16;13.90;99.90
35970;DHT22;22448;51.298;6.430;2023-09-19T03:15:43;13.90;99.90
35970;DHT22;22448;51.298;6.430;2023-09-19T03:18:14;13.80;99.90
35970;DHT22;22448;51.298;6.430;2023-09-19T03:20:42;13.80;99.90
35970;DHT22;22448;51.298;6.430;2023-09-19T03:23:09;13.80;99.90
35970;DHT22;22448;51.298;6.430;2023-09-19T03:25:37;13.80;99.90
35970;DHT22;22448;51.298;6.430;2023-09-19T03:28:04;13.80;99.90
35970;DHT22;22448;51.298;6.430;2023-09-19T03:30:32;13.70;99.90
35970;DHT22;22448;51.298;6.430;2023-09-19T03:33:03;13.70;99.90
35970;DHT22;22448;51.298;6.430;2023-09-19T03:35:32;13.70;99.90
35970;DHT22;22448;51.298;6.430;2023-09-19T03:38:00;13.70;99.90
35970;DHT22;22448;51.298;6.430;2023-09-19T03:40:28;13.70;99.90
35970;DHT22;22448;51.298;6.430;2023-09-19T03:42:55;13.70;99.90
35970;DHT22;22448;51.298;6.430;2023-09-19T03:45:22;13.60;99.90
35970;DHT22;22448;51.298;6.430;2023-09-19T03:47:51;13.60;99.90
35970;DHT22;22448;51.298;6.430;2023-09-19T03:50:20;13.60;99.90
35970;DHT22;22448;51.298;6.430;2023-09-19T03:52:48;13.60;99.90
35970;DHT22;22448;51.298;6.430;2023-09-19T03:55:16;13.60;99.90
35970;DHT22;22448;51.298;6.430;2023-09-19T03:57:48;13.60;99.90
35970;DHT22;22448;51.298;6.430;2023-09-19T04:00:16;13.60;99.90
35970;DHT22;22448;51.298;6.430;2023-09-19T04:02:48;13.60;99.90
35970;DHT22;22448;51.298;6.430;2023-09-19T04:05:15;13.60;99.90
35970;DHT22;22448;51.298;6.430;2023-09-19T04:07:43;13.70;99.90
35970;DHT22;22448;51.298;6.430;2023-09-19T04:10:10;13.70;99.90
35970;DHT22;22448;51.298;6.430;2023-09-19T04:12:53;13.70;99.90
35970;DHT22;22448;51.298;6.430;2023-09-19T04:15:22;13.70;99.90
35970;DHT22;22448;51.298;6.430;2023-09-19T04:17:52;13.80;99.90
35970;DHT22;22448;51.298;6.430;2023-09-19T04:20:19;13.70;99.90
35970;DHT22;22448;51.298;6.430;2023-09-19T04:22:47;13.70;99.90
35970;DHT22;22448;51.298;6.430;2023-09-19T04:25:14;13.70;99.90
35970;DHT22;22448;51.298;6.430;2023-09-19T04:27:41;13.70;99.90
35970;DHT22;22448;51.298;6.430;2023-09-19T04:30:08;13.70;99.90
35970;DHT22;22448;51.298;6.430;2023-09-19T04:32:39;13.70;99.90
35970;DHT22;22448;51.298;6.430;2023-09-19T04:35:10;13.70;99.90
35970;DHT22;22448;51.298;6.430;2023-09-19T04:37:39;13.70;99.90
35970;DHT22;22448;51.298;6.430;2023-09-19T04:40:08;13.80;99.90
35970;DHT22;22448;51.298;6.430;2023-09-19T04:42:43;13.70;99.90
35970;DHT22;22448;51.298;6.430;2023-09-19T04:45:10;13.80;99.90
35970;DHT22;22448;51.298;6.430;2023-09-19T04:47:37;13.80;99.90
35970;DHT22;22448;51.298;6.430;2023-09-19T04:50:07;13.70;99.90
35970;DHT22;22448;51.298;6.430;2023-09-19T04:52:35;13.70;99.90
35970;DHT22;22448;51.298;6.430;2023-09-19T04:55:02;13.70;99.90
35970;DHT22;22448;51.298;6.430;2023-09-19T04:57:29;13.70;99.90
35970;DHT22;22448;51.298;6.430;2023-09-19T04:59:56;13.70;99.90
35970;DHT22;22448;51.298;6.430;2023-09-19T05:02:24;13.70;99.90
35970;DHT22;22448;51.298;6.430;2023-09-19T05:04:51;13.80;99.90
35970;DHT22;22448;51.298;6.430;2023-09-19T05:07:20;13.70;99.90
35970;DHT22;22448;51.298;6.430;2023-09-19T05:09:50;13.80;99.90
35970;DHT22;22448;51.298;6.430;2023-09-19T05:12:17;13.80;99.90
35970;DHT22;22448;51.298;6.430;2023-09-19T05:14:46;13.80;99.90
35970;DHT22;22448;51.298;6.430;2023-09-19T05:17:13;13.80;99.90
35970;DHT22;22448;51.298;6.430;2023-09-19T05:19:43;13.80;99.90
35970;DHT22;22448;51.298;6.430;2023-09-19T05:22:10;13.90;99.90
35970;DHT22;22448;51.298;6.430;2023-09-19T05:24:39;14.00;99.90
35970;DHT22;22448;51.298;6.430;2023-09-19T05:27:06;14.00;99.90
35970;DHT22;22448;51.298;6.430;2023-09-19T05:29:34;14.10;99.90
35970;DHT22;22448;51.298;6.430;2023-09-19T05:32:01;14.10;99.90
35970;DHT22;22448;51.298;6.430;2023-09-19T05:34:30;14.20;99.90
35970;DHT22;22448;51.298;6.430;2023-09-19T05:36:57;14.20;99.90
35970;DHT22;22448;51.298;6.430;2023-09-19T05:39:24;14.30;99.90
35970;DHT22;22448;51.298;6.430;2023-09-19T05:41:51;14.30;99.90
35970;DHT22;22448;51.298;6.430;2023-09-19T05:44:18;14.40;99.90
35970;DHT22;22448;51.298;6.430;2023-09-19T05:46:46;14.30;99.90
35970;DHT22;22448;51.298;6.430;2023-09-19T05:49:15;14.40;99.90
35970;DHT22;22448;51.298;6.430;2023-09-19T05:51:42;14.40;99.90
35970;DHT22;22448;51.298;6.430;2023-09-19T05:54:09;14.50;99.90
35970;DHT22;22448;51.298;6.430;2023-09-19T05:56:37;14.50;99.90
35970;DHT22;22448;51.298;6.430;2023-09-19T05:59:05;14.50;99.90
35970;DHT22;22448;51.298;6.430;2023-09-19T06:01:32;14.60;99.90
35970;DHT22;22448;51.298;6.430;2023-09-19T06:04:01;14.60;99.90
35970;DHT22;22448;51.298;6.430;2023-09-19T06:06:28;14.60;99.90
35970;DHT22;22448;51.298;6.430;2023-09-19T06:08:55;14.70;99.90
35970;DHT22;22448;51.298;6.430;2023-09-19T06:11:22;14.70;99.90
35970;DHT22;22448;51.298;6.430;2023-09-19T06:13:51;14.70;99.90
35970;DHT22;22448;51.298;6.430;2023-09-19T06:16:20;14.70;99.90
35970;DHT22;22448;51.298;6.430;2023-09-19T06:18:47;14.70;99.90
35970;DHT22;22448;51.298;6.430;2023-09-19T06:21:16;14.70;99.90
35970;DHT22;22448;51.298;6.430;2023-09-19T06:23:43;14.80;99.90
35970;DHT22;22448;51.298;6.430;2023-09-19T06:26:10;14.80;99.90
35970;DHT22;22448;51.298;6.430;2023-09-19T06:28:40;14.80;99.90
35970;DHT22;22448;51.298;6.430;2023-09-19T06:31:08;14.80;99.90
35970;DHT22;22448;51.298;6.430;2023-09-19T06:33:37;14.90;99.90
35970;DHT22;22448;51.298;6.430;2023-09-19T06:36:08;14.90;99.90
35970;DHT22;22448;51.298;6.430;2023-09-19T06:38:35;15.00;99.90
35970;DHT22;22448;51.298;6.430;2023-09-19T06:41:03;15.00;99.90
35970;DHT22;22448;51.298;6.430;2023-09-19T06:43:34;15.10;99.90
35970;DHT22;22448;51.298;6.430;2023-09-19T06:46:02;15.20;99.90
35970;DHT22;22448;51.298;6.430;2023-09-19T06:48:29;15.30;99.90
35970;DHT22;22448;51.298;6.430;2023-09-19T06:50:56;15.30;99.90
35970;DHT22;22448;51.298;6.430;2023-09-19T06:53:25;15.40;99.90
35970;DHT22;22448;51.298;6.430;2023-09-19T06:55:52;15.50;99.90
35970;DHT22;22448;51.298;6.430;2023-09-19T06:58:20;15.60;99.90
35970;DHT22;22448;51.298;6.430;2023-09-19T07:00:47;15.70;99.90
35970;DHT22;22448;51.298;6.430;2023-09-19T07:03:14;15.80;99.90
35970;DHT22;22448;51.298;6.430;2023-09-19T07:05:43;15.90;99.90
35970;DHT22;22448;51.298;6.430;2023-09-19T07:08:10;16.00;99.90
35970;DHT22;22448;51.298;6.430;2023-09-19T07:10:39;16.10;99.90
35970;DHT22;22448;51.298;6.430;2023-09-19T07:13:16;16.10;99.90
35970;DHT22;22448;51.298;6.430;2023-09-19T07:15:44;16.20;99.90
35970;DHT22;22448;51.298;6.430;2023-09-19T07:18:16;16.20;99.90
35970;DHT22;22448;51.298;6.430;2023-09-19T07:20:45;16.30;99.90
35970;DHT22;22448;51.298;6.430;2023-09-19T07:23:20;16.30;99.90
35970;DHT22;22448;51.298;6.430;2023-09-19T07:25:49;16.40;99.90
35970;DHT22;22448;51.298;6.430;2023-09-19T07:28:16;16.40;99.90
35970;DHT22;22448;51.298;6.430;2023-09-19T07:30:44;16.50;99.90
35970;DHT22;22448;51.298;6.430;2023-09-19T07:33:11;16.50;99.90
35970;DHT22;22448;51.298;6.430;2023-09-19T07:35:39;16.60;99.90
35970;DHT22;22448;51.298;6.430;2023-09-19T07:38:09;16.60;99.90
35970;DHT22;22448;51.298;6.430;2023-09-19T07:40:38;16.70;99.90
35970;DHT22;22448;51.298;6.430;2023-09-19T07:43:06;16.70;99.90
35970;DHT22;22448;51.298;6.430;2023-09-19T07:45:33;16.80;99.90
35970;DHT22;22448;51.298;6.430;2023-09-19T07:48:01;16.80;99.90
35970;DHT22;22448;51.298;6.430;2023-09-19T07:50:33;16.80;99.90
35970;DHT22;22448;51.298;6.430;2023-09-19T07:53:03;16.90;99.90
35970;DHT22;22448;51.298;6.430;2023-09-19T07:55:32;17.00;99.90
35970;DHT22;22448;51.298;6.430;2023-09-19T07:58:01;17.20;99.90
35970;DHT22;22448;51.298;6.430;2023-09-19T08:00:30;17.30;99.90
35970;DHT22;22448;51.298;6.430;2023-09-19T08:02:59;17.40;99.90
35970;DHT22;22448;51.298;6.430;2023-09-19T08:05:34;17.60;99.90
35970;DHT22;22448;51.298;6.430;2023-09-19T08:08:01;17.70;99.90
35970;DHT22;22448;51.298;6.430;2023-09-19T08:10:28;17.80;99.90
35970;DHT22;22448;51.298;6.430;2023-09-19T08:13:02;17.90;99.90
35970;DHT22;22448;51.298;6.430;2023-09-19T08:15:29;17.90;99.90
35970;DHT22;22448;51.298;6.430;2023-09-19T08:17:56;17.90;99.90
35970;DHT22;22448;51.298;6.430;2023-09-19T08:20:24;17.90;99.90
35970;DHT22;22448;51.298;6.430;2023-09-19T08:22:53;17.90;99.90
35970;DHT22;22448;51.298;6.430;2023-09-19T08:25:22;17.90;99.90
35970;DHT22;22448;51.298;6.430;2023-09-19T08:27:50;18.10;99.90
35970;DHT22;22448;51.298;6.430;2023-09-19T08:30:21;18.10;99.90
35970;DHT22;22448;51.298;6.430;2023-09-19T08:33:00;18.00;99.90
35970;DHT22;22448;51.298;6.430;2023-09-19T08:35:27;18.10;99.90
35970;DHT22;22448;51.298;6.430;2023-09-19T08:37:55;18.20;99.90
35970;DHT22;22448;51.298;6.430;2023-09-19T08:40:23;18.30;99.90
35970;DHT22;22448;51.298;6.430;2023-09-19T08:42:54;18.30;99.90
35970;DHT22;22448;51.298;6.430;2023-09-19T08:45:23;18.30;99.90
35970;DHT22;22448;51.298;6.430;2023-09-19T08:47:59;18.40;99.90
35970;DHT22;22448;51.298;6.430;2023-09-19T08:50:28;18.50;99.90
35970;DHT22;22448;51.298;6.430;2023-09-19T08:52:56;18.60;99.90
35970;DHT22;22448;51.298;6.430;2023-09-19T08:55:29;18.70;99.90
35970;DHT22;22448;51.298;6.430;2023-09-19T08:58:02;18.70;99.90
35970;DHT22;22448;51.298;6.430;2023-09-19T09:00:31;18.80;99.90
35970;DHT22;22448;51.298;6.430;2023-09-19T09:02:59;18.80;99.90
35970;DHT22;22448;51.298;6.430;2023-09-19T09:05:27;18.90;99.90
35970;DHT22;22448;51.298;6.430;2023-09-19T09:07:55;19.00;99.90
35970;DHT22;22448;51.298;6.430;2023-09-19T09:10:23;19.00;99.90
35970;DHT22;22448;51.298;6.430;2023-09-19T09:12:53;19.00;99.90
35970;DHT22;22448;51.298;6.430;2023-09-19T09:15:23;18.90;99.90
35970;DHT22;22448;51.298;6.430;2023-09-19T09:17:51;18.90;99.90
35970;DHT22;22448;51.298;6.430;2023-09-19T09:20:20;19.00;99.90
35970;DHT22;22448;51.298;6.430;2023-09-19T09:22:55;19.00;99.90
35970;DHT22;22448;51.298;6.430;2023-09-19T09:25:22;19.10;99.90
35970;DHT22;22448;51.298;6.430;2023-09-19T09:27:59;19.10;99.90
35970;DHT22;22448;51.298;6.430;2023-09-19T09:30:36;19.20;99.90
35970;DHT22;22448;51.298;6.430;2023-09-19T09:33:11;19.20;99.90
35970;DHT22;22448;51.298;6.430;2023-09-19T09:35:53;19.40;99.90
35970;DHT22;22448;51.298;6.430;2023-09-19T09:38:25;19.60;99.90
35970;DHT22;22448;51.298;6.430;2023-09-19T09:40:55;19.70;99.90
35970;DHT22;22448;51.298;6.430;2023-09-19T09:43:36;19.70;99.90
35970;DHT22;22448;51.298;6.430;2023-09-19T09:46:18;19.90;99.90
35970;DHT22;22448;51.298;6.430;2023-09-19T09:48:57;20.00;99.90
35970;DHT22;22448;51.298;6.430;2023-09-19T09:51:49;20.00;99.90
35970;DHT22;22448;51.298;6.430;2023-09-19T09:54:25;19.70;99.90
35970;DHT22;22448;51.298;6.430;2023-09-19T09:57:05;19.50;99.90
35970;DHT22;22448;51.298;6.430;2023-09-19T10:00:06;19.20;99.90
35970;DHT22;22448;51.298;6.430;2023-09-19T10:02:38;19.00;99.90
35970;DHT22;22448;51.298;6.430;2023-09-19T10:05:18;19.10;99.90
35970;DHT22;22448;51.298;6.430;2023-09-19T10:07:55;19.20;99.90
35970;DHT22;22448;51.298;6.430;2023-09-19T10:10:38;19.30;99.90
35970;DHT22;22448;51.298;6.430;2023-09-19T10:13:28;19.70;99.90
35970;DHT22;22448;51.298;6.430;2023-09-19T10:15:58;20.10;99.90
35970;DHT22;22448;51.298;6.430;2023-09-19T10:18:33;20.30;99.90
35970;DHT22;22448;51.298;6.430;2023-09-19T10:21:03;20.30;99.90
35970;DHT22;22448;51.298;6.430;2023-09-19T10:23:32;20.40;99.90
35970;DHT22;22448;51.298;6.430;2023-09-19T10:26:01;20.40;99.90
35970;DHT22;22448;51.298;6.430;2023-09-19T10:28:30;20.30;99.90
35970;DHT22;22448;51.298;6.430;2023-09-19T10:31:00;20.20;99.90
35970;DHT22;22448;51.298;6.430;2023-09-19T10:33:35;20.30;99.90
35970;DHT22;22448;51.298;6.430;2023-09-19T10:36:05;20.30;99.90
35970;DHT22;22448;51.298;6.430;2023-09-19T10:38:33;20.20;99.90
35970;DHT22;22448;51.298;6.430;2023-09-19T10:41:03;20.30;99.90
35970;DHT22;22448;51.298;6.430;2023-09-19T10:43:33;20.40;99.90
35970;DHT22;22448;51.298;6.430;2023-09-19T10:46:07;20.50;99.90
35970;DHT22;22448;51.298;6.430;2023-09-19T10:48:35;20.40;99.90
35970;DHT22;22448;51.298;6.430;2023-09-19T10:51:12;20.50;99.90
35970;DHT22;22448;51.298;6.430;2023-09-19T10:53:51;20.70;99.90
35970;DHT22;22448;51.298;6.430;2023-09-19T10:56:30;20.80;99.90
35970;DHT22;22448;51.298;6.430;2023-09-19T10:59:09;20.90;99.90
35970;DHT22;22448;51.298;6.430;2023-09-19T11:02:16;21.00;99.90
35970;DHT22;22448;51.298;6.430;2023-09-19T11:04:44;21.00;99.90
35970;DHT22;22448;51.298;6.430;2023-09-19T11:07:15;20.90;99.90
35970;DHT22;22448;51.298;6.430;2023-09-19T11:10:03;20.90;99.90
35970;DHT22;22448;51.298;6.430;2023-09-19T11:15:08;20.90;99.90
35970;DHT22;22448;51.298;6.430;2023-09-19T11:17:41;21.00;99.90
35970;DHT22;22448;51.298;6.430;2023-09-19T11:30:47;21.20;99.90
35970;DHT22;22448;51.298;6.430;2023-09-19T11:36:16;21.40;99.90
35970;DHT22;22448;51.298;6.430;2023-09-19T11:43:53;21.60;99.90
35970;DHT22;22448;51.298;6.430;2023-09-19T11:46:27;21.50;99.90
35970;DHT22;22448;51.298;6.430;2023-09-19T11:49:05;21.50;99.90
35970;DHT22;22448;51.298;6.430;2023-09-19T11:51:43;21.60;99.90
35970;DHT22;22448;51.298;6.430;2023-09-19T11:54:14;21.70;99.90
35970;DHT22;22448;51.298;6.430;2023-09-19T11:56:59;21.80;99.90
35970;DHT22;22448;51.298;6.430;2023-09-19T11:59:28;21.80;99.90
35970;DHT22;22448;51.298;6.430;2023-09-19T12:02:05;21.80;99.90
35970;DHT22;22448;51.298;6.430;2023-09-19T12:07:24;22.00;99.90
35970;DHT22;22448;51.298;6.430;2023-09-19T12:10:03;22.00;99.90
35970;DHT22;22448;51.298;6.430;2023-09-19T12:12:31;22.00;99.90
35970;DHT22;22448;51.298;6.430;2023-09-19T12:14:59;22.20;99.90
35970;DHT22;22448;51.298;6.430;2023-09-19T12:17:40;22.30;99.90
35970;DHT22;22448;51.298;6.430;2023-09-19T12:20:10;22.20;99.90
35970;DHT22;22448;51.298;6.430;2023-09-19T12:25:10;22.20;99.90
35970;DHT22;22448;51.298;6.430;2023-09-19T12:27:45;22.00;99.90
35970;DHT22;22448;51.298;6.430;2023-09-19T12:30:31;21.90;99.90
35970;DHT22;22448;51.298;6.430;2023-09-19T12:33:03;22.00;99.90
35970;DHT22;22448;51.298;6.430;2023-09-19T12:35:31;21.90;99.90
35970;DHT22;22448;51.298;6.430;2023-09-19T12:38:02;21.80;99.90
35970;DHT22;22448;51.298;6.430;2023-09-19T12:40:31;21.90;99.90
35970;DHT22;22448;51.298;6.430;2023-09-19T12:43:00;21.90;99.90
35970;DHT22;22448;51.298;6.430;2023-09-19T12:45:32;21.90;99.90
35970;DHT22;22448;51.298;6.430;2023-09-19T12:51:04;21.90;99.90
35970;DHT22;22448;51.298;6.430;2023-09-19T12:53:36;22.00;99.90
35970;DHT22;22448;51.298;6.430;2023-09-19T12:56:13;21.90;99.90
35970;DHT22;22448;51.298;6.430;2023-09-19T12:58:55;21.90;99.90
35970;DHT22;22448;51.298;6.430;2023-09-19T13:01:24;21.80;99.90
35970;DHT22;22448;51.298;6.430;2023-09-19T13:04:15;21.70;99.90
35970;DHT22;22448;51.298;6.430;2023-09-19T13:06:48;21.50;99.90
35970;DHT22;22448;51.298;6.430;2023-09-19T13:09:17;21.50;99.90
35970;DHT22;22448;51.298;6.430;2023-09-19T13:11:45;21.50;99.90
35970;DHT22;22448;51.298;6.430;2023-09-19T13:14:22;21.30;99.90
35970;DHT22;22448;51.298;6.430;2023-09-19T13:16:59;21.30;99.90
35970;DHT22;22448;51.298;6.430;2023-09-19T13:19:38;21.30;99.90
35970;DHT22;22448;51.298;6.430;2023-09-19T13:22:43;21.10;99.90
35970;DHT22;22448;51.298;6.430;2023-09-19T13:25:21;20.90;99.90
35970;DHT22;22448;51.298;6.430;2023-09-19T13:27:54;20.70;99.90
35970;DHT22;22448;51.298;6.430;2023-09-19T13:30:27;20.60;99.90
35970;DHT22;22448;51.298;6.430;2023-09-19T13:33:09;20.30;99.90
35970;DHT22;22448;51.298;6.430;2023-09-19T13:35:39;20.20;99.90
35970;DHT22;22448;51.298;6.430;2023-09-19T13:38:07;20.10;99.90
35970;DHT22;22448;51.298;6.430;2023-09-19T13:40:39;20.00;99.90
35970;DHT22;22448;51.298;6.430;2023-09-19T13:43:09;20.00;99.90
35970;DHT22;22448;51.298;6.430;2023-09-19T13:45:37;20.00;99.90
35970;DHT22;22448;51.298;6.430;2023-09-19T13:48:05;20.10;99.90
35970;DHT22;22448;51.298;6.430;2023-09-19T13:50:32;20.10;99.90
35970;DHT22;22448;51.298;6.430;2023-09-19T13:52:59;20.20;99.90
35970;DHT22;22448;51.298;6.430;2023-09-19T13:55:27;20.20;99.90
35970;DHT22;22448;51.298;6.430;2023-09-19T13:57:55;20.20;99.90
35970;DHT22;22448;51.298;6.430;2023-09-19T14:00:23;20.30;99.90
35970;DHT22;22448;51.298;6.430;2023-09-19T14:02:50;20.30;99.90
35970;DHT22;22448;51.298;6.430;2023-09-19T14:05:19;20.30;99.90
35970;DHT22;22448;51.298;6.430;2023-09-19T14:07:49;20.20;99.90
35970;DHT22;22448;51.298;6.430;2023-09-19T14:10:16;20.20;99.90
35970;DHT22;22448;51.298;6.430;2023-09-19T14:12:47;20.30;99.90
35970;DHT22;22448;51.298;6.430;2023-09-19T14:15:14;20.40;99.90
35970;DHT22;22448;51.298;6.430;2023-09-19T14:17:42;20.50;99.90
35970;DHT22;22448;51.298;6.430;2023-09-19T14:20:10;20.50;99.90
35970;DHT22;22448;51.298;6.430;2023-09-19T14:22:38;20.60;99.90
35970;DHT22;22448;51.298;6.430;2023-09-19T14:25:05;20.60;99.90
35970;DHT22;22448;51.298;6.430;2023-09-19T14:27:32;20.50;99.90
35970;DHT22;22448;51.298;6.430;2023-09-19T14:29:59;20.40;99.90
35970;DHT22;22448;51.298;6.430;2023-09-19T14:32:26;20.30;99.90
35970;DHT22;22448;51.298;6.430;2023-09-19T14:34:53;20.30;99.90
35970;DHT22;22448;51.298;6.430;2023-09-19T14:37:20;20.30;99.90
35970;DHT22;22448;51.298;6.430;2023-09-19T14:39:48;20.40;99.90
35970;DHT22;22448;51.298;6.430;2023-09-19T14:42:15;20.40;99.90
35970;DHT22;22448;51.298;6.430;2023-09-19T14:44:44;20.30;99.90
35970;DHT22;22448;51.298;6.430;2023-09-19T14:47:11;20.30;99.90
35970;DHT22;22448;51.298;6.430;2023-09-19T14:49:40;20.10;99.90
35970;DHT22;22448;51.298;6.430;2023-09-19T14:52:09;20.10;99.90
35970;DHT22;22448;51.298;6.430;2023-09-19T14:54:36;20.00;99.90
35970;DHT22;22448;51.298;6.430;2023-09-19T14:57:08;19.90;99.90
35970;DHT22;22448;51.298;6.430;2023-09-19T14:59:36;19.80;99.90
35970;DHT22;22448;51.298;6.430;2023-09-19T15:02:06;19.80;99.90
35970;DHT22;22448;51.298;6.430;2023-09-19T15:04:34;19.80;99.90
35970;DHT22;22448;51.298;6.430;2023-09-19T15:07:01;19.80;99.90
35970;DHT22;22448;51.298;6.430;2023-09-19T15:09:29;19.80;99.90
35970;DHT22;22448;51.298;6.430;2023-09-19T15:11:59;19.70;99.90
35970;DHT22;22448;51.298;6.430;2023-09-19T15:14:26;19.80;99.90
35970;DHT22;22448;51.298;6.430;2023-09-19T15:16:53;19.70;99.90
35970;DHT22;22448;51.298;6.430;2023-09-19T15:19:21;19.80;99.90
35970;DHT22;22448;51.298;6.430;2023-09-19T15:21:49;19.80;99.90
35970;DHT22;22448;51.298;6.430;2023-09-19T15:24:16;19.80;99.90
35970;DHT22;22448;51.298;6.430;2023-09-19T15:26:43;19.90;99.90
35970;DHT22;22448;51.298;6.430;2023-09-19T15:29:14;19.90;99.90
35970;DHT22;22448;51.298;6.430;2023-09-19T15:31:43;20.00;99.90
35970;DHT22;22448;51.298;6.430;2023-09-19T15:34:10;19.90;99.90
35970;DHT22;22448;51.298;6.430;2023-09-19T15:36:41;19.90;99.90
35970;DHT22;22448;51.298;6.430;2023-09-19T15:39:09;19.80;99.90
35970;DHT22;22448;51.298;6.430;2023-09-19T15:41:40;19.70;99.90
35970;DHT22;22448;51.298;6.430;2023-09-19T15:44:15;19.60;99.90
35970;DHT22;22448;51.298;6.430;2023-09-19T15:46:43;19.40;99.90
35970;DHT22;22448;51.298;6.430;2023-09-19T15:49:12;19.30;99.90
35970;DHT22;22448;51.298;6.430;2023-09-19T15:51:39;19.30;99.90
35970;DHT22;22448;51.298;6.430;2023-09-19T15:54:12;19.30;99.90
35970;DHT22;22448;51.298;6.430;2023-09-19T15:56:43;19.30;99.90
35970;DHT22;22448;51.298;6.430;2023-09-19T15:59:11;19.50;99.90
35970;DHT22;22448;51.298;6.430;2023-09-19T16:01:44;19.60;99.90
35970;DHT22;22448;51.298;6.430;2023-09-19T16:04:12;19.70;99.90
35970;DHT22;22448;51.298;6.430;2023-09-19T16:06:40;19.80;99.90
35970;DHT22;22448;51.298;6.430;2023-09-19T16:09:08;19.90;99.90
35970;DHT22;22448;51.298;6.430;2023-09-19T16:11:37;20.00;99.90
35970;DHT22;22448;51.298;6.430;2023-09-19T16:14:04;20.00;99.90
35970;DHT22;22448;51.298;6.430;2023-09-19T16:16:33;20.00;99.90
35970;DHT22;22448;51.298;6.430;2023-09-19T16:19:02;20.00;99.90
35970;DHT22;22448;51.298;6.430;2023-09-19T16:21:33;19.90;99.90
35970;DHT22;22448;51.298;6.430;2023-09-19T16:24:03;19.80;99.90
35970;DHT22;22448;51.298;6.430;2023-09-19T16:26:32;19.80;99.90
35970;DHT22;22448;51.298;6.430;2023-09-19T16:28:59;19.70;99.90
35970;DHT22;22448;51.298;6.430;2023-09-19T16:31:30;19.70;99.90